Time;durP1;ratioP1;P1;durP2;ratioP2;P2;SDS_P1;SDS_P2;PMS_P1;PMS_P2;Temp;Humidity;BMP_temperature;BMP_pressure;BME280_temperature;BME280_humidity;BME280_pressure;Samples;Min_cycle;Max_cycle;Signal;HPM_P1;HPM_P2
2022/07/08 00:00:22;;;;;;;9.13;2.00;;;16.50;99.90;;;;;;5034439;28;20721;-77
2022/07/08 00:02:49;;;;;;;10.50;2.20;;;16.50;99.90;;;;;;5043731;28;21144;-78
2022/07/08 00:05:16;;;;;;;6.33;1.70;;;16.50;99.90;;;;;;5056065;28;20260;-78
2022/07/08 00:07:43;;;;;;;10.53;2.27;;;16.40;99.90;;;;;;5049225;28;20228;-78
2022/07/08 00:10:10;;;;;;;6.63;1.87;;;16.40;99.90;;;;;;5051659;28;20197;-78
2022/07/08 00:12:37;;;;;;;7.70;1.90;;;16.40;99.90;;;;;;5041673;28;20221;-78
2022/07/08 00:15:04;;;;;;;11.20;2.40;;;16.40;99.90;;;;;;5044078;28;20289;-78
2022/07/08 00:17:32;;;;;;;11.00;2.00;;;16.40;99.90;;;;;;5057866;28;20281;-77
2022/07/08 00:19:58;;;;;;;12.17;2.20;;;16.40;99.90;;;;;;5051341;28;20279;-78
2022/07/08 00:22:26;;;;;;;9.30;2.50;;;16.40;99.90;;;;;;5045903;28;20209;-78
2022/07/08 00:24:53;;;;;;;5.73;2.40;;;16.40;99.90;;;;;;5050501;28;20233;-78
2022/07/08 00:27:20;;;;;;;4.73;2.00;;;16.40;99.90;;;;;;5040935;28;20265;-78
2022/07/08 00:29:47;;;;;;;6.47;2.10;;;16.30;99.90;;;;;;5048824;28;20205;-78
2022/07/08 00:32:14;;;;;;;9.47;2.20;;;16.30;99.90;;;;;;5054529;28;20202;-77
2022/07/08 00:34:48;;;;;;;7.63;2.13;;;16.30;99.90;;;;;;5050861;28;20863;-78
2022/07/08 00:37:15;;;;;;;9.60;2.63;;;16.30;99.90;;;;;;5049832;28;20222;-77
2022/07/08 00:39:42;;;;;;;5.73;1.67;;;16.30;99.90;;;;;;5054132;28;20210;-77
2022/07/08 00:42:09;;;;;;;6.47;2.10;;;16.20;99.90;;;;;;5046527;28;20684;-77
2022/07/08 00:44:36;;;;;;;5.90;2.10;;;16.20;99.90;;;;;;5045079;28;20205;-78
2022/07/08 00:47:04;;;;;;;7.90;2.37;;;16.10;99.90;;;;;;5044702;28;20216;-77
2022/07/08 00:49:31;;;;;;;6.53;2.17;;;16.00;99.90;;;;;;5046505;28;20217;-78
2022/07/08 00:51:59;;;;;;;8.73;2.10;;;16.00;99.90;;;;;;5048879;28;20703;-78
2022/07/08 00:54:27;;;;;;;7.17;2.13;;;15.90;99.90;;;;;;5042425;28;20700;-78
2022/07/08 00:56:54;;;;;;;9.27;1.93;;;15.90;99.90;;;;;;5040812;28;20220;-78
2022/07/08 00:59:22;;;;;;;7.67;2.17;;;15.80;99.90;;;;;;5040069;28;20580;-78
2022/07/08 01:01:49;;;;;;;7.53;2.50;;;15.70;99.90;;;;;;5043750;28;20201;-78
2022/07/08 01:04:16;;;;;;;12.40;2.63;;;15.70;99.90;;;;;;5050484;28;20579;-78
2022/07/08 01:06:44;;;;;;;4.30;2.03;;;15.70;99.90;;;;;;5045987;28;20292;-78
2022/07/08 01:09:14;;;;;;;12.33;2.93;;;15.60;99.90;;;;;;5054874;28;20209;-78
2022/07/08 01:11:47;;;;;;;6.50;2.17;;;15.60;99.90;;;;;;5042698;28;20201;-79
2022/07/08 01:14:15;;;;;;;9.07;2.23;;;15.60;99.90;;;;;;5037265;28;20283;-79
2022/07/08 01:16:42;;;;;;;7.40;2.30;;;15.50;99.90;;;;;;5050247;28;20258;-78
2022/07/08 01:19:09;;;;;;;7.50;1.93;;;15.50;99.90;;;;;;5047795;28;20679;-79
2022/07/08 01:21:36;;;;;;;5.23;2.30;;;15.50;99.90;;;;;;5078734;28;20205;-78
2022/07/08 01:24:03;;;;;;;8.93;2.40;;;15.50;99.90;;;;;;5052642;28;20263;-78
2022/07/08 01:26:30;;;;;;;8.03;2.10;;;15.50;99.90;;;;;;5044844;28;20979;-78
2022/07/08 01:28:57;;;;;;;9.13;2.50;;;15.40;99.90;;;;;;5047878;28;20243;-78
2022/07/08 01:31:24;;;;;;;7.30;2.10;;;15.40;99.90;;;;;;5043018;28;20204;-77
2022/07/08 01:33:51;;;;;;;6.30;2.30;;;15.40;99.90;;;;;;5047541;28;20237;-78
2022/07/08 01:36:18;;;;;;;11.33;1.97;;;15.40;99.90;;;;;;5049244;28;20184;-78
2022/07/08 01:38:47;;;;;;;8.93;2.57;;;15.40;99.90;;;;;;5040733;28;20607;-78
2022/07/08 01:41:14;;;;;;;4.77;1.83;;;15.40;99.90;;;;;;5059357;28;20287;-78
2022/07/08 01:43:40;;;;;;;8.60;2.33;;;15.40;99.90;;;;;;5079236;28;20266;-78
2022/07/08 01:46:07;;;;;;;6.63;2.53;;;15.40;99.90;;;;;;5053916;28;20814;-78
2022/07/08 01:48:34;;;;;;;8.57;2.03;;;15.40;99.90;;;;;;5047568;28;20225;-78
2022/07/08 01:51:01;;;;;;;5.33;1.97;;;15.30;99.90;;;;;;5044565;28;20201;-79
2022/07/08 01:53:27;;;;;;;4.60;2.20;;;15.30;99.90;;;;;;5041743;28;20201;-78
2022/07/08 01:55:55;;;;;;;5.87;2.00;;;15.30;99.90;;;;;;5046154;28;20206;-78
2022/07/08 01:58:21;;;;;;;4.50;1.83;;;15.30;99.90;;;;;;5041583;28;20221;-78
2022/07/08 02:00:48;;;;;;;4.13;1.90;;;15.30;99.90;;;;;;5035201;28;20197;-78
2022/07/08 02:03:15;;;;;;;6.13;1.80;;;15.20;99.90;;;;;;5040644;28;20268;-78
2022/07/08 02:05:42;;;;;;;7.90;3.57;;;15.20;99.90;;;;;;5048818;28;20205;-78
2022/07/08 02:08:09;;;;;;;8.97;2.00;;;15.20;99.90;;;;;;5051373;28;20235;-77
2022/07/08 02:13:21;;;;;;;10.37;2.77;;;15.10;99.90;;;;;;5046590;28;21022;-78
2022/07/08 02:15:48;;;;;;;4.17;2.03;;;15.10;99.90;;;;;;5072879;28;20210;-79
2022/07/08 02:18:15;;;;;;;9.30;2.43;;;15.10;99.90;;;;;;5045840;28;20247;-79
2022/07/08 02:20:42;;;;;;;7.60;2.57;;;15.20;99.90;;;;;;5043115;28;20204;-77
2022/07/08 02:23:09;;;;;;;7.60;2.10;;;15.20;99.90;;;;;;5054521;28;20290;-78
2022/07/08 02:25:36;;;;;;;9.10;2.20;;;15.20;99.90;;;;;;5038006;28;20362;-78
2022/07/08 02:28:03;;;;;;;4.97;2.27;;;15.20;99.90;;;;;;5036997;28;20760;-79
2022/07/08 02:30:29;;;;;;;3.17;1.60;;;15.20;99.90;;;;;;5067162;28;20241;-79
2022/07/08 02:32:56;;;;;;;9.20;2.30;;;15.10;99.90;;;;;;5041614;28;21045;-79
2022/07/08 02:35:23;;;;;;;7.63;1.97;;;15.10;99.90;;;;;;5051934;28;20308;-78
2022/07/08 02:37:50;;;;;;;7.37;2.10;;;15.10;99.90;;;;;;5049038;28;20200;-77
2022/07/08 02:40:17;;;;;;;6.63;2.30;;;15.10;99.90;;;;;;5044652;28;20271;-78
2022/07/08 02:42:44;;;;;;;5.27;2.10;;;15.10;99.90;;;;;;5047757;28;20237;-78
2022/07/08 02:45:10;;;;;;;4.03;2.10;;;15.10;99.90;;;;;;5042117;28;20274;-77
2022/07/08 02:47:37;;;;;;;4.80;2.20;;;15.10;99.90;;;;;;5047192;28;20689;-78
2022/07/08 02:50:05;;;;;;;7.97;2.20;;;15.10;99.90;;;;;;5040561;28;20236;-79
2022/07/08 02:52:32;;;;;;;6.00;2.27;;;15.00;99.90;;;;;;5039216;28;20201;-79
2022/07/08 02:54:59;;;;;;;6.60;1.97;;;15.00;99.90;;;;;;5038816;28;20209;-78
2022/07/08 02:57:26;;;;;;;5.40;2.07;;;15.00;99.90;;;;;;5032407;28;20206;-79
2022/07/08 02:59:53;;;;;;;8.47;2.27;;;15.00;99.90;;;;;;5034860;28;20222;-77
2022/07/08 03:02:19;;;;;;;6.83;2.03;;;15.00;99.90;;;;;;5042501;28;20201;-79
2022/07/08 03:04:46;;;;;;;6.13;2.40;;;14.90;99.90;;;;;;5042611;28;20674;-79
2022/07/08 03:07:13;;;;;;;11.03;2.60;;;14.80;99.90;;;;;;5056780;28;20200;-78
2022/07/08 03:09:40;;;;;;;7.43;2.57;;;14.80;99.90;;;;;;5044926;28;20253;-78
2022/07/08 03:12:07;;;;;;;5.83;2.50;;;14.70;99.90;;;;;;5048941;28;20209;-77
2022/07/08 03:14:34;;;;;;;8.17;2.37;;;14.70;99.90;;;;;;5046200;28;20326;-78
2022/07/08 03:17:01;;;;;;;9.43;2.90;;;14.70;99.90;;;;;;5048855;28;20229;-77
2022/07/08 03:19:28;;;;;;;9.50;2.67;;;14.60;99.90;;;;;;5058447;28;20225;-78
2022/07/08 03:21:54;;;;;;;4.43;2.50;;;14.60;99.90;;;;;;5055288;28;20295;-77
2022/07/08 03:24:21;;;;;;;6.50;2.50;;;14.60;99.90;;;;;;5081883;28;20221;-78
2022/07/08 03:26:48;;;;;;;6.23;3.27;;;14.60;99.90;;;;;;5074649;28;20252;-78
2022/07/08 03:29:15;;;;;;;6.50;2.20;;;14.70;99.90;;;;;;5045206;28;20306;-77
2022/07/08 03:31:41;;;;;;;9.07;2.27;;;14.70;99.90;;;;;;5037122;28;20194;-77
2022/07/08 03:34:08;;;;;;;6.20;2.43;;;14.70;99.90;;;;;;5045123;28;20225;-78
2022/07/08 03:36:35;;;;;;;5.67;2.40;;;14.70;99.90;;;;;;5048373;28;20198;-78
2022/07/08 03:39:02;;;;;;;7.43;2.67;;;14.80;99.90;;;;;;5050052;28;20609;-79
2022/07/08 03:41:29;;;;;;;4.40;2.40;;;14.80;99.90;;;;;;5048907;28;20271;-79
2022/07/08 03:43:56;;;;;;;5.97;2.87;;;14.80;99.90;;;;;;5042699;28;20668;-78
2022/07/08 03:46:23;;;;;;;11.70;2.67;;;14.80;99.90;;;;;;5058044;28;20213;-77
2022/07/08 03:48:50;;;;;;;4.23;2.60;;;14.80;99.90;;;;;;5050161;28;20261;-76
2022/07/08 03:51:18;;;;;;;5.37;2.20;;;14.80;99.90;;;;;;5052642;28;20208;-77
2022/07/08 03:53:44;;;;;;;9.20;2.37;;;14.80;99.90;;;;;;5054296;28;20331;-77
2022/07/08 03:56:13;;;;;;;6.93;2.47;;;14.80;99.90;;;;;;5044001;28;20289;-78
2022/07/08 03:58:39;;;;;;;6.40;2.27;;;14.90;99.90;;;;;;5038085;28;20287;-77
2022/07/08 04:01:06;;;;;;;8.97;2.57;;;14.90;99.90;;;;;;5084949;28;20600;-75
2022/07/08 04:03:33;;;;;;;6.47;2.40;;;14.90;99.90;;;;;;5046976;28;20332;-80
2022/07/08 04:06:00;;;;;;;7.90;2.90;;;15.00;99.90;;;;;;5050684;28;20712;-78
2022/07/08 04:08:27;;;;;;;7.27;2.20;;;14.90;99.90;;;;;;5051307;28;20236;-80
2022/07/08 04:10:55;;;;;;;6.60;2.10;;;15.00;99.90;;;;;;5040527;28;20615;-77
2022/07/08 04:13:25;;;;;;;6.27;2.50;;;15.00;99.90;;;;;;5043796;28;20225;-79
2022/07/08 04:15:52;;;;;;;8.70;2.17;;;15.10;99.90;;;;;;5047418;28;20589;-78
2022/07/08 04:18:19;;;;;;;8.53;2.40;;;15.10;99.90;;;;;;5054890;28;20246;-79
2022/07/08 04:20:46;;;;;;;5.50;2.07;;;15.10;99.90;;;;;;5054997;28;20643;-79
2022/07/08 04:23:13;;;;;;;7.23;2.50;;;15.10;99.90;;;;;;5046045;28;20220;-78
2022/07/08 04:25:40;;;;;;;6.07;2.50;;;15.20;99.90;;;;;;5043664;28;20206;-78
2022/07/08 04:28:07;;;;;;;6.53;2.40;;;15.20;99.90;;;;;;5045861;28;20225;-78
2022/07/08 04:30:34;;;;;;;6.73;2.30;;;15.30;99.90;;;;;;5041407;28;20585;-79
2022/07/08 04:33:01;;;;;;;5.57;1.80;;;15.60;99.90;;;;;;5047929;28;20220;-77
2022/07/08 04:35:27;;;;;;;9.67;2.63;;;15.40;99.90;;;;;;5051068;28;20220;-78
2022/07/08 04:37:54;;;;;;;9.57;2.63;;;15.40;99.90;;;;;;5047026;28;20217;-78
2022/07/08 04:40:26;;;;;;;5.37;2.63;;;15.50;99.90;;;;;;5043115;28;20189;-79
2022/07/08 04:42:53;;;;;;;6.53;2.10;;;15.50;99.90;;;;;;5046740;28;20205;-78
2022/07/08 04:45:20;;;;;;;7.90;2.87;;;15.50;99.90;;;;;;5042644;28;20209;-78
2022/07/08 04:47:47;;;;;;;5.60;2.50;;;15.50;99.90;;;;;;5047666;28;20641;-80
2022/07/08 04:50:14;;;;;;;11.60;2.20;;;15.60;99.90;;;;;;5036025;28;20669;-78
2022/07/08 04:52:41;;;;;;;10.03;2.30;;;15.60;99.90;;;;;;5039427;28;20248;-77
2022/07/08 04:55:27;;;;;;;7.77;2.47;;;15.50;99.90;;;;;;5039665;28;22295;-78
2022/07/08 04:57:56;;;;;;;4.80;2.20;;;15.50;99.90;;;;;;5033321;28;20202;-78
2022/07/08 05:00:23;;;;;;;8.37;2.20;;;15.50;99.90;;;;;;5038907;28;20285;-77
2022/07/08 05:02:50;;;;;;;9.07;2.53;;;15.50;99.90;;;;;;5046374;28;20197;-77
2022/07/08 05:05:18;;;;;;;5.93;2.43;;;15.50;99.90;;;;;;5050084;28;20204;-79
2022/07/08 05:07:47;;;;;;;9.20;2.33;;;15.50;99.90;;;;;;5050533;28;20828;-79
2022/07/08 05:10:16;;;;;;;12.13;3.20;;;15.50;99.90;;;;;;5041929;28;20202;-78
2022/07/08 05:12:44;;;;;;;8.77;2.30;;;15.40;99.90;;;;;;5047648;28;20239;-80
2022/07/08 05:15:12;;;;;;;5.43;2.10;;;15.50;99.90;;;;;;5047273;28;20184;-80
2022/07/08 05:17:39;;;;;;;7.90;2.50;;;15.50;99.90;;;;;;5049715;28;20779;-77
2022/07/08 05:20:08;;;;;;;6.60;2.00;;;15.50;99.90;;;;;;5039205;28;20708;-79
2022/07/08 05:22:35;;;;;;;10.30;2.63;;;15.60;99.90;;;;;;5053216;28;20202;-79
2022/07/08 05:25:03;;;;;;;11.43;2.60;;;15.60;99.90;;;;;;5046364;28;20258;-77
2022/07/08 05:27:30;;;;;;;7.63;2.10;;;15.60;99.90;;;;;;5049122;28;20664;-78
2022/07/08 05:29:57;;;;;;;10.60;2.53;;;15.70;99.90;;;;;;5046367;28;20246;-79
2022/07/08 05:32:24;;;;;;;9.63;2.73;;;15.70;99.90;;;;;;5035502;28;20278;-78
2022/07/08 05:34:57;;;;;;;8.50;2.03;;;16.10;99.90;;;;;;5065695;28;20225;-79
2022/07/08 05:37:24;;;;;;;9.25;2.33;;;17.00;99.90;;;;;;5037397;28;20682;-79
2022/07/08 05:39:50;;;;;;;5.88;1.98;;;18.30;99.90;;;;;;5039869;28;20201;-78
2022/07/08 05:42:17;;;;;;;6.35;1.90;;;19.40;99.90;;;;;;5033499;28;20210;-79
2022/07/08 05:44:44;;;;;;;7.70;1.88;;;20.60;99.90;;;;;;5034551;28;20275;-78
2022/07/08 05:47:11;;;;;;;8.52;1.75;;;21.80;99.90;;;;;;5041003;28;20198;-79
2022/07/08 05:49:38;;;;;;;7.30;1.60;;;22.80;99.90;;;;;;5051746;28;20279;-79
2022/07/08 05:52:05;;;;;;;6.18;1.77;;;23.20;99.90;;;;;;5046034;28;20577;-78
2022/07/08 05:54:32;;;;;;;8.90;2.47;;;23.00;99.90;;;;;;5044875;28;20229;-78
2022/07/08 05:56:59;;;;;;;8.00;2.20;;;22.60;99.90;;;;;;5036997;28;20198;-80
2022/07/08 05:59:27;;;;;;;7.38;1.70;;;22.30;99.90;;;;;;5041210;28;20197;-80
2022/07/08 06:01:55;;;;;;;7.57;2.30;;;21.90;99.90;;;;;;5042968;28;20251;-80
2022/07/08 06:04:22;;;;;;;8.60;2.15;;;21.50;99.90;;;;;;5048370;28;20583;-79
2022/07/08 06:06:49;;;;;;;7.10;1.70;;;21.20;99.90;;;;;;5046137;28;20632;-80
2022/07/08 06:09:16;;;;;;;10.65;2.20;;;20.80;99.90;;;;;;5042275;28;20322;-81
2022/07/08 06:11:43;;;;;;;6.10;2.15;;;20.70;99.90;;;;;;5053297;28;20670;-81
2022/07/08 06:14:10;;;;;;;9.88;1.80;;;20.40;99.90;;;;;;5047945;28;20209;-82
2022/07/08 06:16:36;;;;;;;8.02;1.95;;;20.30;99.90;;;;;;5053141;28;20290;-78
2022/07/08 06:19:03;;;;;;;12.40;2.22;;;20.20;99.90;;;;;;5048973;28;20360;-77
2022/07/08 06:21:30;;;;;;;8.65;2.10;;;20.20;99.90;;;;;;5046839;28;20311;-79
2022/07/08 06:23:57;;;;;;;9.45;2.75;;;20.10;99.90;;;;;;5051362;28;20236;-78
2022/07/08 06:26:24;;;;;;;10.95;2.15;;;20.10;99.90;;;;;;5050013;28;20193;-80
2022/07/08 06:28:51;;;;;;;15.57;3.90;;;20.00;99.90;;;;;;5046142;28;20577;-80
2022/07/08 06:31:18;;;;;;;6.22;1.75;;;20.10;99.90;;;;;;5043696;28;20231;-81
2022/07/08 06:33:45;;;;;;;7.80;1.95;;;20.10;99.90;;;;;;5044269;28;20213;-79
2022/07/08 06:36:14;;;;;;;5.85;1.60;;;20.20;99.90;;;;;;5046785;28;21605;-78
2022/07/08 06:38:41;;;;;;;6.95;2.10;;;20.30;99.90;;;;;;5049931;28;20620;-77
2022/07/08 06:41:08;;;;;;;11.95;2.05;;;20.40;99.90;;;;;;5054374;28;20571;-78
2022/07/08 06:43:35;;;;;;;9.52;1.85;;;20.30;99.90;;;;;;5049843;28;20695;-77
2022/07/08 06:46:01;;;;;;;9.32;1.80;;;20.30;99.90;;;;;;5045245;28;20237;-77
2022/07/08 06:48:28;;;;;;;14.15;3.20;;;20.30;99.90;;;;;;5055446;28;20247;-80
2022/07/08 06:50:56;;;;;;;7.00;1.92;;;20.30;99.90;;;;;;5046746;28;20573;-79
2022/07/08 06:53:23;;;;;;;8.55;2.20;;;20.40;99.90;;;;;;5049102;28;20220;-81
2022/07/08 06:55:50;;;;;;;5.32;1.80;;;20.30;99.90;;;;;;5049580;28;20231;-80
2022/07/08 06:58:16;;;;;;;8.93;2.10;;;20.50;99.90;;;;;;5050913;28;20807;-81
2022/07/08 07:00:43;;;;;;;8.52;2.42;;;20.70;99.90;;;;;;5046725;28;20189;-81
2022/07/08 07:03:10;;;;;;;7.35;1.67;;;20.80;99.90;;;;;;5048050;28;20216;-79
2022/07/08 07:05:37;;;;;;;8.70;1.70;;;21.00;99.90;;;;;;5050003;28;20212;-80
2022/07/08 07:08:04;;;;;;;7.68;2.25;;;21.30;99.90;;;;;;5051414;28;20262;-78
2022/07/08 07:10:31;;;;;;;9.07;1.88;;;21.40;99.90;;;;;;5046601;28;20227;-79
2022/07/08 07:12:58;;;;;;;6.13;1.90;;;21.50;99.90;;;;;;5046313;28;20197;-80
2022/07/08 07:15:24;;;;;;;5.18;1.85;;;21.60;99.90;;;;;;5056453;28;20271;-80
2022/07/08 07:17:51;;;;;;;7.40;1.70;;;21.60;99.90;;;;;;5049293;28;20290;-82
2022/07/08 07:20:18;;;;;;;7.72;2.00;;;21.80;99.90;;;;;;5051235;28;20315;-83
2022/07/08 07:22:46;;;;;;;7.57;1.70;;;21.80;99.90;;;;;;5048372;28;20623;-83
2022/07/08 07:25:13;;;;;;;8.68;1.55;;;21.80;99.90;;;;;;5050534;28;20216;-83
2022/07/08 07:27:40;;;;;;;5.53;2.20;;;21.80;99.90;;;;;;5055249;28;20656;-83
2022/07/08 07:30:09;;;;;;;5.25;1.48;;;21.80;99.90;;;;;;5057377;28;20652;-81
2022/07/08 07:32:36;;;;;;;8.05;2.33;;;21.90;99.90;;;;;;5083556;28;20212;-81
2022/07/08 07:35:03;;;;;;;7.70;2.15;;;21.90;99.90;;;;;;5042788;28;20241;-81
2022/07/08 07:37:35;;;;;;;10.15;2.20;;;21.80;99.90;;;;;;5043851;28;20347;-82
2022/07/08 07:40:04;;;;;;;7.88;1.90;;;21.70;99.90;;;;;;5039656;28;20218;-83
2022/07/08 07:42:32;;;;;;;6.57;1.83;;;21.50;99.90;;;;;;5039380;28;20621;-81
2022/07/08 07:44:59;;;;;;;7.22;2.28;;;21.50;99.90;;;;;;5044330;28;20633;-80
2022/07/08 07:47:25;;;;;;;6.97;2.10;;;21.40;99.90;;;;;;5043322;28;20730;-81
2022/07/08 07:49:52;;;;;;;6.72;2.47;;;21.40;99.90;;;;;;5046158;28;20750;-79
2022/07/08 07:52:19;;;;;;;6.32;1.58;;;21.40;99.90;;;;;;5045413;28;20669;-78
2022/07/08 07:54:46;;;;;;;8.90;1.88;;;21.50;99.90;;;;;;5049347;28;20263;-78
2022/07/08 07:57:12;;;;;;;10.38;2.17;;;21.50;99.90;;;;;;5047816;28;20836;-79
2022/07/08 07:59:40;;;;;;;6.78;1.75;;;21.50;99.90;;;;;;5045209;28;20247;-79
2022/07/08 08:02:07;;;;;;;5.70;1.80;;;21.50;99.90;;;;;;5049822;28;20209;-78
2022/07/08 08:04:34;;;;;;;7.63;1.67;;;21.40;99.90;;;;;;5050012;28;20633;-84
2022/07/08 08:07:01;;;;;;;8.60;2.00;;;21.40;99.90;;;;;;5046637;28;20282;-82
2022/07/08 08:09:28;;;;;;;9.00;1.90;;;21.60;99.90;;;;;;5045001;28;20242;-81
2022/07/08 08:11:55;;;;;;;9.35;2.42;;;21.90;99.90;;;;;;5050464;28;20677;-83
2022/07/08 08:14:22;;;;;;;7.82;1.60;;;22.30;99.90;;;;;;5049743;28;20279;-82
2022/07/08 08:16:48;;;;;;;6.97;2.08;;;22.50;99.90;;;;;;5047562;28;20295;-81
2022/07/08 08:19:15;;;;;;;7.65;1.95;;;22.90;99.90;;;;;;5048784;28;20229;-81
2022/07/08 08:21:42;;;;;;;10.43;1.90;;;23.20;99.90;;;;;;5046633;28;20202;-81
2022/07/08 08:24:09;;;;;;;6.40;1.90;;;23.50;99.90;;;;;;5051639;28;20243;-80
2022/07/08 08:26:36;;;;;;;7.35;2.38;;;23.60;99.90;;;;;;5046833;28;20228;-81
2022/07/08 08:29:02;;;;;;;6.82;1.83;;;23.80;99.90;;;;;;5049686;28;20683;-81
2022/07/08 08:31:29;;;;;;;5.95;1.75;;;23.80;99.90;;;;;;5076046;28;20213;-82
2022/07/08 08:33:56;;;;;;;6.43;1.85;;;23.70;99.90;;;;;;5048659;28;20273;-80
2022/07/08 08:36:26;;;;;;;9.00;1.83;;;23.60;99.90;;;;;;5050143;28;20267;-82
2022/07/08 08:38:53;;;;;;;7.28;2.35;;;23.60;99.90;;;;;;5049260;28;20197;-81
2022/07/08 08:41:22;;;;;;;14.05;2.35;;;23.50;99.90;;;;;;5045197;28;20209;-79
2022/07/08 08:43:49;;;;;;;9.23;2.05;;;23.70;99.90;;;;;;5051426;28;20209;-81
2022/07/08 08:46:22;;;;;;;7.90;1.95;;;23.90;99.90;;;;;;5054591;28;20245;-79
2022/07/08 08:48:55;;;;;;;6.10;1.80;;;24.10;99.90;;;;;;5052531;28;20236;-78
2022/07/08 08:51:22;;;;;;;5.50;1.85;;;24.30;99.90;;;;;;5040665;28;20205;-80
2022/07/08 08:53:53;;;;;;;7.28;1.73;;;24.50;99.90;;;;;;5046646;28;20275;-80
2022/07/08 08:56:20;;;;;;;4.88;2.08;;;24.50;99.90;;;;;;5054982;28;20211;-80
2022/07/08 08:58:47;;;;;;;8.15;1.73;;;24.70;99.90;;;;;;5052939;28;20259;-81
2022/07/08 09:01:15;;;;;;;5.70;1.70;;;24.80;99.90;;;;;;5055967;28;20204;-80
2022/07/08 09:03:43;;;;;;;8.07;2.00;;;25.00;99.90;;;;;;5053781;28;20275;-79
2022/07/08 09:06:10;;;;;;;3.55;1.52;;;25.30;99.90;;;;;;5047314;28;20213;-79
2022/07/08 09:08:38;;;;;;;5.47;1.77;;;25.50;99.90;;;;;;5049002;28;20194;-78
2022/07/08 09:11:06;;;;;;;6.63;1.77;;;25.70;99.90;;;;;;5044197;28;20233;-79
2022/07/08 09:13:33;;;;;;;5.28;1.60;;;25.80;99.90;;;;;;5043197;28;20536;-79
2022/07/08 09:16:07;;;;;;;5.20;1.50;;;25.90;99.90;;;;;;5050392;28;20240;-79
2022/07/08 09:18:35;;;;;;;4.55;1.45;;;26.10;99.90;;;;;;5048720;28;20232;-81
2022/07/08 09:21:03;;;;;;;6.65;1.73;;;26.20;99.90;;;;;;5050329;28;20611;-79
2022/07/08 09:23:32;;;;;;;6.78;1.92;;;26.30;99.90;;;;;;5050157;28;20216;-80
2022/07/08 09:26:08;;;;;;;8.95;1.85;;;26.30;99.90;;;;;;5031788;28;20217;-80
2022/07/08 09:28:44;;;;;;;4.47;1.88;;;26.50;99.90;;;;;;5050680;28;20554;-81
2022/07/08 09:31:13;;;;;;;4.55;1.88;;;26.70;99.90;;;;;;5043750;28;20242;-82
2022/07/08 09:33:41;;;;;;;6.97;1.60;;;26.80;99.90;;;;;;5070890;28;20218;-80
2022/07/08 09:36:09;;;;;;;4.22;1.58;;;26.80;99.90;;;;;;5040046;28;20206;-81
2022/07/08 09:38:38;;;;;;;5.05;1.90;;;26.80;99.90;;;;;;5050753;28;20647;-80
2022/07/08 09:41:09;;;;;;;6.63;1.80;;;26.90;99.90;;;;;;5047743;28;20212;-82
2022/07/08 09:43:48;;;;;;;6.00;2.17;;;27.00;99.90;;;;;;5044756;28;20228;-82
2022/07/08 09:46:16;;;;;;;7.25;2.20;;;26.90;99.90;;;;;;5047189;28;20197;-80
2022/07/08 09:48:43;;;;;;;6.28;1.63;;;26.70;99.90;;;;;;5045564;28;21054;-80
2022/07/08 09:51:10;;;;;;;6.93;1.95;;;26.60;99.90;;;;;;5042847;28;20282;-79
2022/07/08 09:53:39;;;;;;;6.45;1.73;;;26.50;99.90;;;;;;5049484;28;20198;-83
2022/07/08 09:56:07;;;;;;;6.25;1.95;;;26.40;99.90;;;;;;5047156;28;20572;-81
2022/07/08 09:58:35;;;;;;;4.97;1.70;;;26.40;99.90;;;;;;5051734;28;20189;-81
2022/07/08 10:01:04;;;;;;;20.33;2.80;;;26.30;99.90;;;;;;5052216;28;20259;-82
2022/07/08 10:03:32;;;;;;;6.55;2.30;;;26.30;99.90;;;;;;5046468;28;21007;-79
2022/07/08 10:06:01;;;;;;;7.25;1.88;;;26.40;99.90;;;;;;5052708;28;20665;-79
2022/07/08 10:08:28;;;;;;;5.95;1.67;;;26.50;99.90;;;;;;5053193;28;20231;-79
2022/07/08 10:10:57;;;;;;;5.72;1.90;;;26.70;99.90;;;;;;5049143;28;20220;-80
2022/07/08 10:13:34;;;;;;;4.70;1.80;;;26.80;99.90;;;;;;5057932;28;20220;-79
2022/07/08 10:16:04;;;;;;;4.32;1.70;;;26.90;99.90;;;;;;5053327;28;20656;-79
2022/07/08 10:18:41;;;;;;;7.82;1.80;;;26.70;99.90;;;;;;5052494;28;20323;-80
2022/07/08 10:21:11;;;;;;;4.60;1.60;;;26.80;99.90;;;;;;5053610;28;20243;-79
2022/07/08 10:23:40;;;;;;;4.78;1.60;;;26.70;99.90;;;;;;5059120;28;20262;-80
2022/07/08 10:26:07;;;;;;;7.75;1.80;;;26.50;99.90;;;;;;5051720;28;20196;-81
2022/07/08 10:28:36;;;;;;;5.75;1.70;;;26.30;99.90;;;;;;5052165;28;20201;-80
2022/07/08 10:31:19;;;;;;;4.47;1.60;;;26.10;99.90;;;;;;5048805;28;20253;-81
2022/07/08 10:33:46;;;;;;;3.95;1.40;;;26.20;99.90;;;;;;5035305;28;20753;-79
2022/07/08 10:36:17;;;;;;;3.70;1.40;;;26.40;99.90;;;;;;5048174;28;20193;-82
2022/07/08 10:38:44;;;;;;;4.22;1.65;;;26.70;99.90;;;;;;5045832;28;20323;-81
2022/07/08 10:41:12;;;;;;;6.60;1.70;;;27.20;99.90;;;;;;5046141;28;20341;-82
2022/07/08 10:43:51;;;;;;;5.07;1.80;;;27.30;99.90;;;;;;5048503;28;20205;-80
2022/07/08 10:46:20;;;;;;;6.50;1.88;;;27.50;99.90;;;;;;5044043;28;20204;-82
2022/07/08 10:48:55;;;;;;;4.95;1.90;;;27.60;99.90;;;;;;5045298;28;20537;-82
2022/07/08 10:51:25;;;;;;;7.50;1.88;;;27.70;99.90;;;;;;5042199;28;20217;-81
2022/07/08 10:54:09;;;;;;;5.85;2.00;;;27.80;99.90;;;;;;5044711;28;20201;-83
2022/07/08 10:56:58;;;;;;;5.75;2.03;;;27.80;99.90;;;;;;5038849;28;20205;-83
2022/07/08 10:59:33;;;;;;;6.35;1.75;;;27.70;99.90;;;;;;5044171;28;20661;-82
2022/07/08 11:02:14;;;;;;;3.05;1.55;;;27.60;99.90;;;;;;5042530;28;20580;-81
2022/07/08 11:04:41;;;;;;;5.03;1.48;;;27.60;99.90;;;;;;5039991;28;20311;-79
2022/07/08 11:07:24;;;;;;;3.53;1.77;;;27.60;99.90;;;;;;5050085;28;20584;-78
2022/07/08 11:09:56;;;;;;;5.05;1.80;;;27.60;99.90;;;;;;5046925;28;20252;-78
2022/07/08 11:12:26;;;;;;;6.47;1.88;;;27.60;99.90;;;;;;5048441;28;20280;-78
2022/07/08 11:14:58;;;;;;;6.45;1.80;;;27.70;99.90;;;;;;5045587;28;20551;-79
2022/07/08 11:17:31;;;;;;;6.85;1.83;;;27.70;99.90;;;;;;5047169;28;20232;-80
2022/07/08 11:20:11;;;;;;;6.43;2.03;;;27.40;99.90;;;;;;5051025;28;20221;-81
2022/07/08 11:22:40;;;;;;;7.35;2.45;;;27.30;99.90;;;;;;5048921;28;20201;-80
2022/07/08 11:25:09;;;;;;;5.68;2.03;;;27.10;99.90;;;;;;5046102;28;20216;-81
2022/07/08 11:27:36;;;;;;;6.05;2.05;;;27.10;99.90;;;;;;5047148;28;20201;-82
2022/07/08 11:30:11;;;;;;;8.23;2.40;;;27.30;99.90;;;;;;5040679;28;20330;-81
2022/07/08 11:32:39;;;;;;;5.28;1.80;;;27.50;99.90;;;;;;5048615;28;20197;-84
2022/07/08 11:35:07;;;;;;;8.25;2.58;;;27.70;99.90;;;;;;5056207;28;20212;-82
2022/07/08 11:37:41;;;;;;;6.18;2.17;;;27.80;99.90;;;;;;5057622;28;20239;-81
2022/07/08 11:40:09;;;;;;;17.00;2.92;;;27.70;99.90;;;;;;5055014;28;20239;-81
2022/07/08 11:42:36;;;;;;;4.68;1.90;;;27.60;99.90;;;;;;5051182;28;20201;-82
2022/07/08 11:45:05;;;;;;;5.97;2.15;;;27.30;99.90;;;;;;5043945;28;20247;-83
2022/07/08 11:47:32;;;;;;;5.78;2.28;;;27.20;99.90;;;;;;5045323;28;20204;-83
2022/07/08 11:49:59;;;;;;;9.02;2.30;;;27.10;99.90;;;;;;5048446;28;20332;-83
2022/07/08 11:52:27;;;;;;;5.70;2.20;;;27.10;99.90;;;;;;5056180;28;20699;-81
2022/07/08 11:54:57;;;;;;;6.90;2.50;;;27.20;99.90;;;;;;5052379;28;20213;-81
2022/07/08 11:57:24;;;;;;;11.30;2.47;;;27.20;99.90;;;;;;5056476;28;20247;-80
2022/07/08 11:59:51;;;;;;;4.45;1.85;;;27.20;99.90;;;;;;5048892;28;20251;-78
2022/07/08 12:02:20;;;;;;;4.88;2.20;;;27.30;99.90;;;;;;5051936;28;20217;-80
2022/07/08 12:04:50;;;;;;;7.93;2.20;;;27.30;99.90;;;;;;5051133;28;20274;-79
2022/07/08 12:07:28;;;;;;;5.55;2.10;;;27.30;99.90;;;;;;5045391;28;20208;-80
2022/07/08 12:10:03;;;;;;;5.65;1.90;;;27.20;99.90;;;;;;5061223;28;20962;-81
2022/07/08 12:12:32;;;;;;;6.32;1.90;;;27.30;99.90;;;;;;5053479;28;20302;-82
2022/07/08 12:15:12;;;;;;;7.10;1.98;;;27.30;99.90;;;;;;5050115;28;20201;-79
2022/07/08 12:17:39;;;;;;;4.88;2.05;;;27.30;99.90;;;;;;5058880;28;20275;-77
2022/07/08 12:20:07;;;;;;;6.20;2.45;;;27.30;99.90;;;;;;5050964;28;20708;-78
2022/07/08 12:22:47;;;;;;;6.88;2.22;;;27.40;99.90;;;;;;5060820;28;20205;-77
2022/07/08 12:25:17;;;;;;;7.10;2.28;;;27.50;99.90;;;;;;5054657;28;20200;-78
2022/07/08 12:27:53;;;;;;;4.68;1.98;;;27.50;99.90;;;;;;5047452;28;20233;-78
2022/07/08 12:30:28;;;;;;;9.68;2.30;;;27.50;99.90;;;;;;5060144;28;20233;-79
2022/07/08 12:33:03;;;;;;;10.43;2.45;;;27.50;99.90;;;;;;5051124;28;20209;-79
2022/07/08 12:35:47;;;;;;;8.85;2.00;;;27.40;99.90;;;;;;5052971;28;20201;-80
2022/07/08 12:38:14;;;;;;;6.72;1.83;;;27.40;99.90;;;;;;5053128;28;20217;-79
2022/07/08 12:40:42;;;;;;;5.47;2.65;;;27.30;99.90;;;;;;5050251;28;20274;-79
2022/07/08 12:43:11;;;;;;;5.03;1.85;;;27.10;99.90;;;;;;5087109;28;20193;-80
2022/07/08 12:45:39;;;;;;;6.95;2.30;;;27.10;99.90;;;;;;5056710;28;20197;-80
2022/07/08 12:48:06;;;;;;;5.38;2.38;;;27.20;99.90;;;;;;5056990;28;20220;-76
2022/07/08 12:50:35;;;;;;;6.35;2.05;;;27.00;99.90;;;;;;5057793;28;20228;-79
2022/07/08 12:53:03;;;;;;;6.43;2.30;;;26.90;99.90;;;;;;5054568;28;20201;-80